Time;durP1;ratioP1;P1;durP2;ratioP2;P2;SDS_P1;SDS_P2;PMS_P1;PMS_P2;Temp;Humidity;BMP_temperature;BMP_pressure;BME280_temperature;BME280_humidity;BME280_pressure;Samples;Min_cycle;Max_cycle;Signal;HPM_P1;HPM_P2
2023/12/06 00:00:57;;;;;;;;;;;;;;;;;;5096310;28;19908;-75
2023/12/06 00:03:23;;;;;;;;;;;;;;;;;;5078514;28;20014;-75
2023/12/06 00:05:49;;;;;;;;;;;;;;;;;;5096702;28;19908;-75
2023/12/06 00:08:15;;;;;;;;;;;;;;;;;;5096140;28;19908;-75
2023/12/06 00:10:41;;;;;;;;;;;;;;;;;;5096540;28;20311;-75
2023/12/06 00:13:07;;;;;;;;;;;;;;;;;;5078011;28;20276;-74
2023/12/06 00:15:33;;;;;;;;;;;;;;;;;;5096456;28;20348;-75
2023/12/06 00:17:59;;;;;;;;;;;;;;;;;;5096946;28;20363;-75
2023/12/06 00:20:25;;;;;;;;;;;;;;;;;;5078175;28;19961;-75
2023/12/06 00:22:51;;;;;;;;;;;;;;;;;;5096875;28;20355;-75
2023/12/06 00:25:17;;;;;;;;;;;;;;;;;;5078150;28;20024;-75
2023/12/06 00:27:43;;;;;;;;;;;;;;;;;;5095804;28;19920;-75
2023/12/06 00:30:08;;;;;;;;;;;;;;;;;;5096215;28;19916;-75
2023/12/06 00:32:34;;;;;;;;;;;;;;;;;;5096147;28;19955;-75
2023/12/06 00:35:00;;;;;;;;;;;;;;;;;;5092818;28;19912;-75
2023/12/06 00:37:26;;;;;;;;;;;;;;;;;;5077274;28;19908;-75
2023/12/06 00:39:52;;;;;;;;;;;;;;;;;;5095566;28;19912;-75
2023/12/06 00:42:18;;;;;;;;;;;;;;;;;;5095307;28;19919;-75
2023/12/06 00:44:44;;;;;;;;;;;;;;;;;;5095633;28;20348;-75
2023/12/06 00:47:10;;;;;;;;;;;;;;;;;;5095562;28;20364;-75
2023/12/06 00:49:36;;;;;;;;;;;;;;;;;;5095396;28;19916;-75
2023/12/06 00:52:02;;;;;;;;;;;;;;;;;;5095480;28;20034;-75
2023/12/06 00:54:28;;;;;;;;;;;;;;;;;;5095552;28;19912;-75
2023/12/06 00:56:54;;;;;;;;;;;;;;;;;;5095212;28;20317;-75
2023/12/06 00:59:20;;;;;;;;;;;;;;;;;;5095434;28;20284;-75
2023/12/06 01:01:46;;;;;;;;;;;;;;;;;;5077340;28;20276;-75
2023/12/06 01:04:12;;;;;;;;;;;;;;;;;;5076502;28;19916;-75
2023/12/06 01:06:38;;;;;;;;;;;;;;;;;;5095477;28;19908;-75
2023/12/06 01:09:06;;;;;;;;;;;;;;;;;;5095247;28;20022;-75
2023/12/06 01:11:32;;;;;;;;;;;;;;;;;;5094828;28;19912;-75
2023/12/06 01:13:58;;;;;;;;;;;;;;;;;;5095109;28;19908;-75
2023/12/06 01:16:24;;;;;;;;;;;;;;;;;;5094926;28;19915;-75
2023/12/06 01:18:50;;;;;;;;;;;;;;;;;;5095143;28;19908;-75
2023/12/06 01:21:16;;;;;;;;;;;;;;;;;;5095039;28;19912;-75
2023/12/06 01:23:42;;;;;;;;;;;;;;;;;;5094618;28;19967;-75
2023/12/06 01:26:08;;;;;;;;;;;;;;;;;;5076729;28;19916;-75
2023/12/06 01:28:34;;;;;;;;;;;;;;;;;;5094683;28;19993;-75
2023/12/06 01:31:00;;;;;;;;;;;;;;;;;;5094549;28;19908;-75
2023/12/06 01:33:26;;;;;;;;;;;;;;;;;;5094911;28;19915;-76
2023/12/06 01:35:52;;;;;;;;;;;;;;;;;;5094795;28;19912;-75
2023/12/06 01:38:18;;;;;;;;;;;;;;;;;;5094329;28;19982;-75
2023/12/06 01:40:44;;;;;;;;;;;;;;;;;;5094793;28;19945;-75
2023/12/06 01:43:10;;;;;;;;;;;;;;;;;;5076841;28;20261;-75
2023/12/06 01:45:36;;;;;;;;;;;;;;;;;;5094369;28;19908;-75
2023/12/06 01:48:02;;;;;;;;;;;;;;;;;;5094408;28;19919;-75
2023/12/06 01:50:28;;;;;;;;;;;;;;;;;;5094505;28;19916;-74
2023/12/06 01:52:54;;;;;;;;;;;;;;;;;;5094262;28;19908;-75
2023/12/06 01:55:20;;;;;;;;;;;;;;;;;;5094602;28;19908;-75
2023/12/06 01:57:46;;;;;;;;;;;;;;;;;;5094395;28;19908;-75
2023/12/06 02:00:12;;;;;;;;;;;;;;;;;;5093922;28;19967;-75
2023/12/06 02:02:38;;;;;;;;;;;;;;;;;;5094330;28;19915;-76
2023/12/06 02:05:04;;;;;;;;;;;;;;;;;;5094146;28;19908;-76
2023/12/06 02:07:30;;;;;;;;;;;;;;;;;;5093945;28;19908;-75
2023/12/06 02:09:56;;;;;;;;;;;;;;;;;;5094127;28;19916;-75
2023/12/06 02:12:22;;;;;;;;;;;;;;;;;;5094058;28;19912;-75
2023/12/06 02:14:48;;;;;;;;;;;;;;;;;;5075093;28;20011;-75
2023/12/06 02:17:14;;;;;;;;;;;;;;;;;;5094093;28;19954;-75
2023/12/06 02:19:40;;;;;;;;;;;;;;;;;;5093748;28;19908;-75
2023/12/06 02:22:06;;;;;;;;;;;;;;;;;;5075859;28;19971;-74
2023/12/06 02:24:32;;;;;;;;;;;;;;;;;;5075725;28;19916;-75
2023/12/06 02:26:58;;;;;;;;;;;;;;;;;;5093499;28;20284;-74
2023/12/06 02:29:24;;;;;;;;;;;;;;;;;;5075613;28;19924;-74
2023/12/06 02:31:50;;;;;;;;;;;;;;;;;;5093963;28;19908;-75
2023/12/06 02:34:16;;;;;;;;;;;;;;;;;;5093404;28;19915;-75
2023/12/06 02:36:42;;;;;;;;;;;;;;;;;;5094082;28;20316;-75
2023/12/06 02:39:09;;;;;;;;;;;;;;;;;;5093718;28;20280;-75
2023/12/06 02:41:35;;;;;;;;;;;;;;;;;;5093631;28;19913;-75
2023/12/06 02:44:01;;;;;;;;;;;;;;;;;;5075869;28;19909;-75
2023/12/06 02:46:27;;;;;;;;;;;;;;;;;;5093936;28;20412;-75
2023/12/06 02:48:52;;;;;;;;;;;;;;;;;;5093722;28;20425;-74
2023/12/06 02:51:22;;;;;;;;;;;;;;;;;;5093788;28;20352;-75
2023/12/06 02:53:48;;;;;;;;;;;;;;;;;;5075734;28;20383;-75
2023/12/06 02:56:14;;;;;;;;;;;;;;;;;;5093411;28;19908;-75
2023/12/06 02:58:40;;;;;;;;;;;;;;;;;;5093826;28;20284;-75
2023/12/06 03:01:06;;;;;;;;;;;;;;;;;;5093743;28;20299;-75
2023/12/06 03:03:32;;;;;;;;;;;;;;;;;;5093434;28;20311;-75
2023/12/06 03:05:58;;;;;;;;;;;;;;;;;;5093713;28;19908;-75
2023/12/06 03:08:24;;;;;;;;;;;;;;;;;;5075674;28;19970;-75
2023/12/06 03:10:50;;;;;;;;;;;;;;;;;;5093348;28;19967;-75
2023/12/06 03:13:16;;;;;;;;;;;;;;;;;;5093693;28;19908;-75
2023/12/06 03:15:42;;;;;;;;;;;;;;;;;;5075493;28;19912;-74
2023/12/06 03:18:08;;;;;;;;;;;;;;;;;;5093313;28;19912;-74
2023/12/06 03:20:34;;;;;;;;;;;;;;;;;;5075699;28;19908;-75
2023/12/06 03:22:59;;;;;;;;;;;;;;;;;;5093278;28;19999;-74
2023/12/06 03:25:25;;;;;;;;;;;;;;;;;;5075484;28;19953;-75
2023/12/06 03:27:51;;;;;;;;;;;;;;;;;;5095270;28;19923;-75
2023/12/06 03:30:17;;;;;;;;;;;;;;;;;;5096991;28;19916;-75
2023/12/06 03:32:43;;;;;;;;;;;;;;;;;;5097742;28;19931;-75
2023/12/06 03:35:09;;;;;;;;;;;;;;;;;;5097374;28;19916;-74
2023/12/06 03:37:35;;;;;;;;;;;;;;;;;;5096911;28;19907;-75
2023/12/06 03:40:01;;;;;;;;;;;;;;;;;;5097154;28;19914;-75
2023/12/06 03:42:27;;;;;;;;;;;;;;;;;;5097225;28;19993;-75
2023/12/06 03:44:53;;;;;;;;;;;;;;;;;;5078734;28;20407;-74
2023/12/06 03:47:19;;;;;;;;;;;;;;;;;;5097110;28;19909;-75
2023/12/06 03:49:45;;;;;;;;;;;;;;;;;;5078836;28;19931;-75
2023/12/06 03:52:11;;;;;;;;;;;;;;;;;;5096617;28;19915;-75
2023/12/06 03:54:37;;;;;;;;;;;;;;;;;;5097033;28;19950;-76
2023/12/06 03:57:03;;;;;;;;;;;;;;;;;;5096908;28;19912;-75
2023/12/06 03:59:29;;;;;;;;;;;;;;;;;;5096492;28;19940;-76
2023/12/06 04:01:55;;;;;;;;;;;;;;;;;;5097064;28;19908;-75
2023/12/06 04:04:21;;;;;;;;;;;;;;;;;;5097163;28;19931;-75
2023/12/06 04:06:47;;;;;;;;;;;;;;;;;;5096278;28;20007;-75
2023/12/06 04:09:13;;;;;;;;;;;;;;;;;;5096448;28;19916;-76
2023/12/06 04:11:39;;;;;;;;;;;;;;;;;;5096554;28;19919;-76
2023/12/06 04:14:06;;;;;;;;;;;;;;;;;;5096181;28;19908;-75
2023/12/06 04:16:32;;;;;;;;;;;;;;;;;;5078355;28;19916;-75
2023/12/06 04:18:58;;;;;;;;;;;;;;;;;;5096513;28;19916;-75
2023/12/06 04:21:24;;;;;;;;;;;;;;;;;;5077949;28;19946;-75
2023/12/06 04:23:50;;;;;;;;;;;;;;;;;;5096498;28;19998;-75
2023/12/06 04:26:16;;;;;;;;;;;;;;;;;;5095908;28;19908;-75
2023/12/06 04:28:42;;;;;;;;;;;;;;;;;;5077806;28;20517;-76
2023/12/06 04:31:07;;;;;;;;;;;;;;;;;;5096275;28;20253;-76
2023/12/06 04:33:33;;;;;;;;;;;;;;;;;;5095798;28;19908;-77
2023/12/06 04:36:00;;;;;;;;;;;;;;;;;;5096163;28;19912;-77
2023/12/06 04:38:25;;;;;;;;;;;;;;;;;;5077402;28;19908;-77
2023/12/06 04:40:51;;;;;;;;;;;;;;;;;;5077544;28;20004;-76
2023/12/06 04:43:17;;;;;;;;;;;;;;;;;;5095977;28;19912;-77
2023/12/06 04:45:43;;;;;;;;;;;;;;;;;;5096137;28;19908;-77
2023/12/06 04:48:09;;;;;;;;;;;;;;;;;;5095617;28;19908;-77
2023/12/06 04:50:35;;;;;;;;;;;;;;;;;;5095753;28;20007;-74
2023/12/06 04:53:01;;;;;;;;;;;;;;;;;;5095799;28;19908;-76
2023/12/06 04:55:27;;;;;;;;;;;;;;;;;;5095458;28;19908;-77
2023/12/06 04:57:53;;;;;;;;;;;;;;;;;;5077628;28;20292;-77
2023/12/06 05:00:21;;;;;;;;;;;;;;;;;;5077716;28;20379;-77
2023/12/06 05:02:47;;;;;;;;;;;;;;;;;;5095653;28;19962;-76
2023/12/06 05:05:13;;;;;;;;;;;;;;;;;;5077498;28;19914;-77
2023/12/06 05:07:39;;;;;;;;;;;;;;;;;;5095629;28;19912;-76
2023/12/06 05:10:05;;;;;;;;;;;;;;;;;;5095031;28;19923;-77
2023/12/06 05:12:31;;;;;;;;;;;;;;;;;;5077290;28;19915;-77
2023/12/06 05:14:57;;;;;;;;;;;;;;;;;;5095469;28;19908;-77
2023/12/06 05:17:23;;;;;;;;;;;;;;;;;;5095020;28;19908;-76
2023/12/06 05:19:48;;;;;;;;;;;;;;;;;;5095240;28;19908;-76
2023/12/06 05:22:14;;;;;;;;;;;;;;;;;;5095163;28;19915;-74
2023/12/06 05:24:40;;;;;;;;;;;;;;;;;;5076602;28;19908;-74
2023/12/06 05:27:06;;;;;;;;;;;;;;;;;;5076885;28;19908;-75
2023/12/06 05:29:32;;;;;;;;;;;;;;;;;;5094579;28;19931;-75
2023/12/06 05:31:58;;;;;;;;;;;;;;;;;;5095093;28;19912;-75
2023/12/06 05:34:24;;;;;;;;;;;;;;;;;;5094929;28;19908;-75
2023/12/06 05:36:50;;;;;;;;;;;;;;;;;;5076344;28;19922;-75
2023/12/06 05:39:16;;;;;;;;;;;;;;;;;;5094533;28;19908;-75
2023/12/06 05:41:42;;;;;;;;;;;;;;;;;;5093355;28;19912;-75
2023/12/06 05:44:08;;;;;;;;;;;;;;;;;;5094118;28;20314;-75
2023/12/06 05:46:34;;;;;;;;;;;;;;;;;;5094410;28;19915;-75
2023/12/06 05:49:00;;;;;;;;;;;;;;;;;;5094498;28;19916;-75
2023/12/06 05:51:26;;;;;;;;;;;;;;;;;;5092094;28;19961;-75
2023/12/06 05:53:52;;;;;;;;;;;;;;;;;;5093201;28;19912;-77
2023/12/06 05:56:18;;;;;;;;;;;;;;;;;;5093165;28;19908;-73
2023/12/06 05:58:44;;;;;;;;;;;;;;;;;;5092792;28;19930;-74
2023/12/06 06:01:10;;;;;;;;;;;;;;;;;;5074887;28;19952;-75
2023/12/06 06:03:37;;;;;;;;;;;;;;;;;;5093319;28;19934;-75
2023/12/06 06:06:02;;;;;;;;;;;;;;;;;;5093074;28;19912;-75
2023/12/06 06:08:28;;;;;;;;;;;;;;;;;;5093972;28;20275;-74
2023/12/06 06:10:54;;;;;;;;;;;;;;;;;;5076175;28;20250;-75
2023/12/06 06:13:20;;;;;;;;;;;;;;;;;;5093898;28;19970;-75
2023/12/06 06:15:46;;;;;;;;;;;;;;;;;;5094169;28;19912;-74
2023/12/06 06:18:12;;;;;;;;;;;;;;;;;;5094276;28;19919;-74
2023/12/06 06:20:39;;;;;;;;;;;;;;;;;;5093595;28;19908;-75
2023/12/06 06:23:04;;;;;;;;;;;;;;;;;;5075907;28;19915;-75
2023/12/06 06:25:30;;;;;;;;;;;;;;;;;;5085392;28;19912;-74
2023/12/06 06:27:56;;;;;;;;;;;;;;;;;;5088530;28;19927;-75
2023/12/06 06:30:22;;;;;;;;;;;;;;;;;;5092974;28;20015;-75
2023/12/06 06:32:48;;;;;;;;;;;;;;;;;;5087899;28;19954;-75
2023/12/06 06:35:14;;;;;;;;;;;;;;;;;;5077264;28;19920;-75
2023/12/06 06:37:40;;;;;;;;;;;;;;;;;;5087230;28;19914;-74
2023/12/06 06:40:07;;;;;;;;;;;;;;;;;;5080394;28;20276;-74
2023/12/06 06:42:33;;;;;;;;;;;;;;;;;;5090050;28;19966;-74
2023/12/06 06:44:59;;;;;;;;;;;;;;;;;;5091360;28;19952;-74
2023/12/06 06:47:27;;;;;;;;;;;;;;;;;;5073199;28;19908;-75
2023/12/06 06:49:54;;;;;;;;;;;;;;;;;;5076284;28;19921;-74
2023/12/06 06:52:21;;;;;;;;;;;;;;;;;;5084682;28;20008;-75
2023/12/06 06:54:47;;;;;;;;;;;;;;;;;;5087023;28;19935;-76
2023/12/06 06:57:15;;;;;;;;;;;;;;;;;;5086394;28;20580;-75
2023/12/06 06:59:43;;;;;;;;;;;;;;;;;;5085694;28;20636;-75
2023/12/06 07:02:10;;;;;;;;;;;;;;;;;;5076669;28;19908;-75
2023/12/06 07:04:36;;;;;;;;;;;;;;;;;;5092872;28;20364;-75
2023/12/06 07:07:02;;;;;;;;;;;;;;;;;;5094825;28;20257;-75
2023/12/06 07:09:29;;;;;;;;;;;;;;;;;;5075594;28;19920;-74
2023/12/06 07:11:55;;;;;;;;;;;;;;;;;;5076130;28;19908;-75
2023/12/06 07:14:21;;;;;;;;;;;;;;;;;;5095864;28;20382;-76
2023/12/06 07:16:48;;;;;;;;;;;;;;;;;;5091185;28;20015;-77
2023/12/06 07:19:14;;;;;;;;;;;;;;;;;;5093564;28;19916;-75
2023/12/06 07:21:40;;;;;;;;;;;;;;;;;;5094067;28;20331;-75
2023/12/06 07:24:06;;;;;;;;;;;;;;;;;;5095124;28;19909;-75
2023/12/06 07:26:32;;;;;;;;;;;;;;;;;;5073311;28;19923;-74
2023/12/06 07:28:58;;;;;;;;;;;;;;;;;;5090913;28;19920;-75
2023/12/06 07:31:24;;;;;;;;;;;;;;;;;;5094363;28;19908;-75
2023/12/06 07:33:51;;;;;;;;;;;;;;;;;;5066949;28;19912;-75
2023/12/06 07:36:17;;;;;;;;;;;;;;;;;;5091594;28;19919;-74
2023/12/06 07:38:43;;;;;;;;;;;;;;;;;;5091047;28;20037;-75
2023/12/06 07:41:09;;;;;;;;;;;;;;;;;;5072892;28;19965;-74
2023/12/06 07:43:36;;;;;;;;;;;;;;;;;;5097258;28;19953;-87
2023/12/06 07:46:03;;;;;;;;;;;;;;;;;;5087141;28;20432;-86
2023/12/06 07:48:29;;;;;;;;;;;;;;;;;;5078628;28;19912;-70
2023/12/06 07:50:55;;;;;;;;;;;;;;;;;;5090462;28;19920;-69
2023/12/06 07:53:21;;;;;;;;;;;;;;;;;;5092326;28;19919;-71
2023/12/06 07:55:47;;;;;;;;;;;;;;;;;;5075478;28;19919;-71
2023/12/06 07:58:14;;;;;;;;;;;;;;;;;;5091826;28;19908;-70
2023/12/06 08:00:40;;;;;;;;;;;;;;;;;;5091968;28;19958;-70
2023/12/06 08:03:08;;;;;;;;;;;;;;;;;;5090564;28;19951;-70
2023/12/06 08:05:35;;;;;;;;;;;;;;;;;;5071679;28;20360;-68
2023/12/06 08:08:02;;;;;;;;;;;;;;;;;;5071283;28;19920;-69
2023/12/06 08:10:31;;;;;;;;;;;;;;;;;;5077907;28;20361;-69
2023/12/06 08:12:57;;;;;;;;;;;;;;;;;;5090886;28;19912;-69
2023/12/06 08:15:23;;;;;;;;;;;;;;;;;;5092110;28;19947;-70
2023/12/06 08:17:49;;;;;;;;;;;;;;;;;;5091627;28;20344;-69
2023/12/06 08:20:15;;;;;;;;;;;;;;;;;;5089197;28;19919;-69
2023/12/06 08:22:41;;;;;;;;;;;;;;;;;;5089940;28;20450;-70
2023/12/06 08:25:07;;;;;;;;;;;;;;;;;;5084330;28;20026;-68
2023/12/06 08:27:34;;;;;;;;;;;;;;;;;;5090645;28;20097;-67
2023/12/06 08:30:00;;;;;;;;;;;;;;;;;;5092391;28;19974;-69
2023/12/06 08:32:26;;;;;;;;;;;;;;;;;;5091461;28;20357;-69
2023/12/06 08:34:52;;;;;;;;;;;;;;;;;;5088144;28;19916;-68
2023/12/06 08:37:18;;;;;;;;;;;;;;;;;;5090805;28;20486;-69
2023/12/06 08:39:44;;;;;;;;;;;;;;;;;;5088235;28;19920;-68
2023/12/06 08:42:12;;;;;;;;;;;;;;;;;;5090347;28;20004;-69
2023/12/06 08:44:38;;;;;;;;;;;;;;;;;;5091322;28;19955;-69
2023/12/06 08:47:04;;;;;;;;;;;;;;;;;;5092332;28;19948;-70
2023/12/06 08:49:30;;;;;;;;;;;;;;;;;;5073420;28;20028;-70
2023/12/06 08:51:56;;;;;;;;;;;;;;;;;;5093057;28;20316;-68
2023/12/06 08:54:23;;;;;;;;;;;;;;;;;;5074574;28;19961;-71
2023/12/06 08:56:49;;;;;;;;;;;;;;;;;;5086679;28;19970;-72
2023/12/06 08:59:15;;;;;;;;;;;;;;;;;;5081483;28;19912;-70
2023/12/06 09:01:41;;;;;;;;;;;;;;;;;;5082922;28;19912;-70
2023/12/06 09:04:09;;;;;;;;;;;;;;;;;;5091918;28;20288;-70
2023/12/06 09:06:35;;;;;;;;;;;;;;;;;;5089100;28;19908;-69
2023/12/06 09:09:02;;;;;;;;;;;;;;;;;;5071551;28;20051;-69
2023/12/06 09:11:29;;;;;;;;;;;;;;;;;;5089972;28;19927;-70
2023/12/06 09:13:55;;;;;;;;;;;;;;;;;;5087595;28;20408;-70
2023/12/06 09:16:21;;;;;;;;;;;;;;;;;;5098912;28;19922;-70
2023/12/06 09:18:47;;;;;;;;;;;;;;;;;;5073731;28;20443;-69
2023/12/06 09:21:16;;;;;;;;;;;;;;;;;;5072791;28;19912;-70
2023/12/06 09:23:42;;;;;;;;;;;;;;;;;;5089361;28;19912;-69
2023/12/06 09:26:09;;;;;;;;;;;;;;;;;;5090562;28;19964;-69
2023/12/06 09:28:35;;;;;;;;;;;;;;;;;;5090581;28;19973;-68
2023/12/06 09:31:01;;;;;;;;;;;;;;;;;;5091995;28;19912;-70
2023/12/06 09:33:27;;;;;;;;;;;;;;;;;;5091582;28;19946;-70
2023/12/06 09:35:53;;;;;;;;;;;;;;;;;;5092560;28;19912;-69
2023/12/06 09:38:19;;;;;;;;;;;;;;;;;;5092103;28;20307;-69
2023/12/06 09:40:45;;;;;;;;;;;;;;;;;;5092323;28;19912;-70
2023/12/06 09:43:11;;;;;;;;;;;;;;;;;;5092767;28;19908;-70
2023/12/06 09:45:37;;;;;;;;;;;;;;;;;;5075635;28;20001;-69
2023/12/06 09:48:03;;;;;;;;;;;;;;;;;;5088628;28;19973;-69
2023/12/06 09:50:29;;;;;;;;;;;;;;;;;;5089952;28;20632;-70
2023/12/06 09:52:55;;;;;;;;;;;;;;;;;;5088906;28;20395;-69
2023/12/06 09:55:23;;;;;;;;;;;;;;;;;;5089844;28;20003;-69
2023/12/06 09:57:49;;;;;;;;;;;;;;;;;;5089915;28;20272;-68
2023/12/06 10:00:15;;;;;;;;;;;;;;;;;;5067021;28;19919;-69
2023/12/06 10:02:41;;;;;;;;;;;;;;;;;;5070223;28;19963;-68
2023/12/06 10:05:08;;;;;;;;;;;;;;;;;;5090576;28;20425;-68
2023/12/06 10:07:34;;;;;;;;;;;;;;;;;;5089940;28;20335;-68
2023/12/06 10:10:01;;;;;;;;;;;;;;;;;;5075126;28;19930;-69
2023/12/06 10:12:27;;;;;;;;;;;;;;;;;;5104844;28;19920;-68
2023/12/06 10:14:53;;;;;;;;;;;;;;;;;;5089780;28;19953;-68
2023/12/06 10:17:20;;;;;;;;;;;;;;;;;;5070934;28;19912;-68
2023/12/06 10:19:46;;;;;;;;;;;;;;;;;;5075073;28;20010;-67
2023/12/06 10:22:12;;;;;;;;;;;;;;;;;;5110892;28;19998;-68
2023/12/06 10:24:37;;;;;;;;;;;;;;;;;;5080403;28;19909;-68
2023/12/06 10:27:03;;;;;;;;;;;;;;;;;;5072908;28;20003;-67
2023/12/06 10:29:30;;;;;;;;;;;;;;;;;;5089024;28;20017;-69
2023/12/06 10:31:56;;;;;;;;;;;;;;;;;;5084127;28;19938;-69
2023/12/06 10:34:22;;;;;;;;;;;;;;;;;;5064738;28;19920;-67
2023/12/06 10:36:48;;;;;;;;;;;;;;;;;;5082277;28;19916;-67
2023/12/06 10:39:14;;;;;;;;;;;;;;;;;;5072837;28;19908;-69
2023/12/06 10:41:40;;;;;;;;;;;;;;;;;;5073107;28;20339;-68
2023/12/06 10:44:06;;;;;;;;;;;;;;;;;;5064236;28;19912;-69
2023/12/06 10:46:32;;;;;;;;;;;;;;;;;;5090201;28;19999;-68
2023/12/06 10:49:00;;;;;;;;;;;;;;;;;;5083624;28;20010;-69
2023/12/06 10:51:26;;;;;;;;;;;;;;;;;;5068933;28;20269;-69
2023/12/06 10:53:52;;;;;;;;;;;;;;;;;;5086019;28;19912;-68
2023/12/06 10:56:18;;;;;;;;;;;;;;;;;;5089170;28;20442;-68
2023/12/06 10:58:44;;;;;;;;;;;;;;;;;;5088282;28;20312;-69
2023/12/06 11:01:10;;;;;;;;;;;;;;;;;;5088947;28;19951;-69
2023/12/06 11:03:36;;;;;;;;;;;;;;;;;;5091142;28;19919;-69
2023/12/06 11:06:02;;;;;;;;;;;;;;;;;;5095032;28;20430;-69
2023/12/06 11:08:28;;;;;;;;;;;;;;;;;;5070158;28;20010;-69
2023/12/06 11:10:54;;;;;;;;;;;;;;;;;;5072677;28;19931;-69
2023/12/06 11:13:20;;;;;;;;;;;;;;;;;;5083244;28;19912;-68
2023/12/06 11:15:46;;;;;;;;;;;;;;;;;;5075563;28;19931;-68
2023/12/06 11:18:12;;;;;;;;;;;;;;;;;;5077690;28;19935;-68
2023/12/06 11:20:38;;;;;;;;;;;;;;;;;;5105440;28;19916;-67
2023/12/06 11:23:04;;;;;;;;;;;;;;;;;;5090151;28;19912;-69
2023/12/06 11:25:30;;;;;;;;;;;;;;;;;;5070679;28;19912;-68
2023/12/06 11:27:56;;;;;;;;;;;;;;;;;;5073281;28;19916;-68
2023/12/06 11:30:22;;;;;;;;;;;;;;;;;;5081633;28;19963;-69
2023/12/06 11:32:48;;;;;;;;;;;;;;;;;;5086430;28;19931;-68
2023/12/06 11:35:14;;;;;;;;;;;;;;;;;;5086583;28;19912;-68
2023/12/06 11:37:40;;;;;;;;;;;;;;;;;;5088323;28;19919;-68
2023/12/06 11:40:07;;;;;;;;;;;;;;;;;;5086765;28;19916;-68
2023/12/06 11:42:33;;;;;;;;;;;;;;;;;;5080908;28;20053;-67
2023/12/06 11:44:59;;;;;;;;;;;;;;;;;;5087449;28;20010;-68
2023/12/06 11:47:25;;;;;;;;;;;;;;;;;;5086455;28;19919;-68
2023/12/06 11:49:54;;;;;;;;;;;;;;;;;;5065918;28;19967;-68
2023/12/06 11:52:20;;;;;;;;;;;;;;;;;;5077977;28;19912;-68
2023/12/06 11:54:46;;;;;;;;;;;;;;;;;;5089382;28;20037;-68
2023/12/06 11:57:14;;;;;;;;;;;;;;;;;;5091578;28;20002;-69
2023/12/06 11:59:41;;;;;;;;;;;;;;;;;;5101322;28;19909;-69
2023/12/06 12:02:07;;;;;;;;;;;;;;;;;;5102998;28;19920;-68
2023/12/06 12:04:33;;;;;;;;;;;;;;;;;;5104006;28;19915;-67
2023/12/06 12:06:59;;;;;;;;;;;;;;;;;;5094644;28;19912;-68
2023/12/06 12:09:25;;;;;;;;;;;;;;;;;;5094818;28;20017;-67
2023/12/06 12:11:51;;;;;;;;;;;;;;;;;;5094269;28;19912;-67
2023/12/06 12:14:17;;;;;;;;;;;;;;;;;;5093692;28;19920;-70
2023/12/06 12:16:43;;;;;;;;;;;;;;;;;;5093439;28;20325;-70
2023/12/06 12:19:10;;;;;;;;;;;;;;;;;;5094589;28;20017;-70
2023/12/06 12:21:36;;;;;;;;;;;;;;;;;;5094559;28;19923;-70
2023/12/06 12:24:02;;;;;;;;;;;;;;;;;;5092264;28;20322;-70
2023/12/06 12:26:28;;;;;;;;;;;;;;;;;;5093218;28;20030;-70
2023/12/06 12:28:54;;;;;;;;;;;;;;;;;;5068362;28;20014;-67
2023/12/06 12:31:20;;;;;;;;;;;;;;;;;;5091087;28;20334;-68
2023/12/06 12:33:46;;;;;;;;;;;;;;;;;;5095753;28;20305;-68
2023/12/06 12:36:12;;;;;;;;;;;;;;;;;;5110065;28;20417;-70
2023/12/06 12:38:41;;;;;;;;;;;;;;;;;;5072255;28;19954;-69
2023/12/06 12:41:07;;;;;;;;;;;;;;;;;;5091422;28;19948;-69
2023/12/06 12:43:33;;;;;;;;;;;;;;;;;;5092373;28;19947;-69
2023/12/06 12:45:59;;;;;;;;;;;;;;;;;;5092379;28;19923;-69
2023/12/06 12:48:25;;;;;;;;;;;;;;;;;;5092715;28;19909;-67
2023/12/06 12:50:51;;;;;;;;;;;;;;;;;;5092585;28;20045;-68
2023/12/06 12:53:17;;;;;;;;;;;;;;;;;;5093262;28;20014;-67
2023/12/06 12:55:44;;;;;;;;;;;;;;;;;;5092808;28;19908;-69
2023/12/06 12:58:10;;;;;;;;;;;;;;;;;;5075225;28;19912;-69
2023/12/06 13:00:36;;;;;;;;;;;;;;;;;;5078167;28;20364;-68
2023/12/06 13:03:01;;;;;;;;;;;;;;;;;;5092900;28;19908;-68
2023/12/06 13:05:27;;;;;;;;;;;;;;;;;;5094970;28;19966;-69
2023/12/06 13:07:53;;;;;;;;;;;;;;;;;;5075627;28;19912;-67
2023/12/06 13:10:19;;;;;;;;;;;;;;;;;;5075519;28;19928;-69
2023/12/06 13:12:45;;;;;;;;;;;;;;;;;;5093413;28;19908;-70
2023/12/06 13:15:11;;;;;;;;;;;;;;;;;;5073794;28;19908;-71
2023/12/06 13:17:37;;;;;;;;;;;;;;;;;;5074390;28;19908;-70
2023/12/06 13:20:04;;;;;;;;;;;;;;;;;;5091225;28;19931;-70
2023/12/06 13:22:30;;;;;;;;;;;;;;;;;;5090172;28;19930;-71
2023/12/06 13:24:56;;;;;;;;;;;;;;;;;;5072816;28;20531;-71
2023/12/06 13:27:22;;;;;;;;;;;;;;;;;;5091168;28;20016;-71
2023/12/06 13:29:48;;;;;;;;;;;;;;;;;;5090901;28;19984;-71
2023/12/06 13:32:14;;;;;;;;;;;;;;;;;;5073543;28;19939;-70
2023/12/06 13:34:40;;;;;;;;;;;;;;;;;;5073579;28;19908;-72
2023/12/06 13:37:06;;;;;;;;;;;;;;;;;;5091664;28;19918;-72
2023/12/06 13:39:32;;;;;;;;;;;;;;;;;;5092684;28;19920;-73
2023/12/06 13:41:58;;;;;;;;;;;;;;;;;;5092430;28;19908;-71
2023/12/06 13:44:24;;;;;;;;;;;;;;;;;;5093603;28;20284;-71
2023/12/06 13:46:50;;;;;;;;;;;;;;;;;;5093179;28;20006;-71
2023/12/06 13:49:18;;;;;;;;;;;;;;;;;;5093378;28;19916;-72
2023/12/06 13:51:44;;;;;;;;;;;;;;;;;;5093063;28;19991;-70
2023/12/06 13:54:10;;;;;;;;;;;;;;;;;;5071118;28;20423;-71
2023/12/06 13:56:36;;;;;;;;;;;;;;;;;;5092918;28;19909;-71
2023/12/06 13:59:03;;;;;;;;;;;;;;;;;;5075373;28;19919;-71
2023/12/06 14:01:29;;;;;;;;;;;;;;;;;;5093893;28;19908;-71
2023/12/06 14:03:55;;;;;;;;;;;;;;;;;;5075780;28;19961;-71
2023/12/06 14:06:21;;;;;;;;;;;;;;;;;;5094148;28;19947;-72
2023/12/06 14:08:47;;;;;;;;;;;;;;;;;;5091526;28;20398;-72
2023/12/06 14:11:13;;;;;;;;;;;;;;;;;;5091950;28;19999;-73
2023/12/06 14:13:39;;;;;;;;;;;;;;;;;;5090449;28;19915;-72
2023/12/06 14:16:07;;;;;;;;;;;;;;;;;;5074233;28;19930;-73
2023/12/06 14:18:33;;;;;;;;;;;;;;;;;;5092495;28;19999;-73
2023/12/06 14:21:00;;;;;;;;;;;;;;;;;;5073916;28;20004;-72
2023/12/06 14:23:26;;;;;;;;;;;;;;;;;;5091294;28;19908;-71
2023/12/06 14:25:52;;;;;;;;;;;;;;;;;;5073580;28;20351;-71
2023/12/06 14:28:18;;;;;;;;;;;;;;;;;;5073620;28;19938;-71
2023/12/06 14:30:44;;;;;;;;;;;;;;;;;;5090188;28;20406;-71
2023/12/06 14:33:12;;;;;;;;;;;;;;;;;;5070272;28;23171;-71
2023/12/06 14:35:38;;;;;;;;;;;;;;;;;;5090750;28;19915;-72
2023/12/06 14:38:07;;;;;;;;;;;;;;;;;;5091806;28;19957;-73
2023/12/06 14:40:33;;;;;;;;;;;;;;;;;;5092724;28;19908;-72
2023/12/06 14:42:59;;;;;;;;;;;;;;;;;;5092602;28;19957;-72
2023/12/06 14:45:25;;;;;;;;;;;;;;;;;;5092843;28;19908;-72
2023/12/06 14:47:51;;;;;;;;;;;;;;;;;;5093831;28;19904;-72
2023/12/06 14:50:17;;;;;;;;;;;;;;;;;;5093672;28;19916;-73
2023/12/06 14:52:43;;;;;;;;;;;;;;;;;;5093541;28;20368;-72
2023/12/06 14:55:09;;;;;;;;;;;;;;;;;;5093975;28;19912;-72
2023/12/06 14:57:35;;;;;;;;;;;;;;;;;;5093772;28;19915;-73
2023/12/06 15:00:05;;;;;;;;;;;;;;;;;;5093204;28;20048;-73
2023/12/06 15:02:31;;;;;;;;;;;;;;;;;;5093661;28;20284;-73
2023/12/06 15:04:57;;;;;;;;;;;;;;;;;;5094047;28;19909;-73
2023/12/06 15:07:23;;;;;;;;;;;;;;;;;;5093231;28;19962;-73
2023/12/06 15:09:49;;;;;;;;;;;;;;;;;;5094215;28;19961;-73
2023/12/06 15:12:15;;;;;;;;;;;;;;;;;;5093513;28;19908;-73
2023/12/06 15:14:41;;;;;;;;;;;;;;;;;;5093223;28;19908;-72
2023/12/06 15:17:07;;;;;;;;;;;;;;;;;;5093469;28;19912;-72
2023/12/06 15:19:33;;;;;;;;;;;;;;;;;;5093406;28;20360;-72
2023/12/06 15:21:59;;;;;;;;;;;;;;;;;;5093333;28;19912;-72
2023/12/06 15:24:25;;;;;;;;;;;;;;;;;;5097377;28;19947;-72
2023/12/06 15:26:51;;;;;;;;;;;;;;;;;;5097407;28;19916;-73
2023/12/06 15:29:16;;;;;;;;;;;;;;;;;;5096632;28;19990;-72
2023/12/06 15:31:42;;;;;;;;;;;;;;;;;;5097207;28;19911;-80
2023/12/06 15:34:08;;;;;;;;;;;;;;;;;;5097178;28;19952;-72
2023/12/06 15:36:34;;;;;;;;;;;;;;;;;;5096697;28;20378;-72
2023/12/06 15:39:00;;;;;;;;;;;;;;;;;;5078885;28;20442;-72
2023/12/06 15:41:26;;;;;;;;;;;;;;;;;;5096630;28;19961;-72
2023/12/06 15:43:52;;;;;;;;;;;;;;;;;;5097052;28;20360;-73
2023/12/06 15:46:18;;;;;;;;;;;;;;;;;;5078679;28;19912;-72
2023/12/06 15:48:44;;;;;;;;;;;;;;;;;;5096559;28;20035;-72
2023/12/06 15:51:10;;;;;;;;;;;;;;;;;;5096963;28;19908;-72
2023/12/06 15:53:36;;;;;;;;;;;;;;;;;;5096812;28;19934;-72
2023/12/06 15:56:02;;;;;;;;;;;;;;;;;;5096360;28;20010;-72
2023/12/06 15:58:28;;;;;;;;;;;;;;;;;;5096907;28;20307;-71
2023/12/06 16:00:55;;;;;;;;;;;;;;;;;;5097040;28;19908;-73
2023/12/06 16:03:21;;;;;;;;;;;;;;;;;;5096275;28;20368;-72
2023/12/06 16:05:47;;;;;;;;;;;;;;;;;;5096483;28;19915;-72
2023/12/06 16:08:13;;;;;;;;;;;;;;;;;;5096565;28;20372;-72
2023/12/06 16:10:39;;;;;;;;;;;;;;;;;;5096203;28;19916;-72
2023/12/06 16:13:06;;;;;;;;;;;;;;;;;;5096731;28;19908;-73
2023/12/06 16:15:32;;;;;;;;;;;;;;;;;;5096422;28;19912;-72
2023/12/06 16:17:58;;;;;;;;;;;;;;;;;;5095907;28;20267;-72
2023/12/06 16:20:24;;;;;;;;;;;;;;;;;;5096576;28;20347;-72
2023/12/06 16:22:50;;;;;;;;;;;;;;;;;;5096215;28;20276;-72
2023/12/06 16:25:16;;;;;;;;;;;;;;;;;;5078010;28;19999;-72
2023/12/06 16:27:42;;;;;;;;;;;;;;;;;;5095900;28;19916;-73
2023/12/06 16:30:08;;;;;;;;;;;;;;;;;;5096176;28;19920;-72
2023/12/06 16:32:33;;;;;;;;;;;;;;;;;;5095780;28;19912;-73
2023/12/06 16:34:59;;;;;;;;;;;;;;;;;;5092557;28;19908;-73
2023/12/06 16:37:25;;;;;;;;;;;;;;;;;;5095978;28;19908;-73